sensor_id;sensor_type;location;lat;lon;timestamp;P1;durP1;ratioP1;P2;durP2;ratioP2
68940;SDS011;55982;51.476;7.552;2022-10-17T00:01:20;26.65;;;12.45;;
68940;SDS011;55982;51.476;7.552;2022-10-17T00:03:45;16.35;;;11.40;;
68940;SDS011;55982;51.476;7.552;2022-10-17T00:06:12;20.63;;;11.25;;
68940;SDS011;55982;51.476;7.552;2022-10-17T00:08:38;18.10;;;11.10;;
68940;SDS011;55982;51.476;7.552;2022-10-17T00:11:06;12.77;;;10.50;;
68940;SDS011;55982;51.476;7.552;2022-10-17T00:13:36;16.42;;;11.57;;
68940;SDS011;55982;51.476;7.552;2022-10-17T00:16:02;14.48;;;10.13;;
68940;SDS011;55982;51.476;7.552;2022-10-17T00:18:28;15.18;;;9.82;;
68940;SDS011;55982;51.476;7.552;2022-10-17T00:20:54;13.73;;;10.07;;
68940;SDS011;55982;51.476;7.552;2022-10-17T00:23:19;17.38;;;9.48;;
68940;SDS011;55982;51.476;7.552;2022-10-17T00:25:44;16.50;;;8.98;;
68940;SDS011;55982;51.476;7.552;2022-10-17T00:28:11;14.63;;;9.40;;
68940;SDS011;55982;51.476;7.552;2022-10-17T00:30:37;12.50;;;8.55;;
68940;SDS011;55982;51.476;7.552;2022-10-17T00:33:03;13.90;;;8.70;;
68940;SDS011;55982;51.476;7.552;2022-10-17T00:35:29;13.07;;;7.85;;
68940;SDS011;55982;51.476;7.552;2022-10-17T00:37:54;11.35;;;8.45;;
68940;SDS011;55982;51.476;7.552;2022-10-17T00:40:20;13.85;;;9.23;;
68940;SDS011;55982;51.476;7.552;2022-10-17T00:42:45;14.55;;;8.00;;
68940;SDS011;55982;51.476;7.552;2022-10-17T00:45:13;11.60;;;8.02;;
68940;SDS011;55982;51.476;7.552;2022-10-17T00:47:38;10.20;;;8.02;;
68940;SDS011;55982;51.476;7.552;2022-10-17T00:50:06;14.88;;;7.75;;
68940;SDS011;55982;51.476;7.552;2022-10-17T00:52:33;12.23;;;7.43;;
68940;SDS011;55982;51.476;7.552;2022-10-17T00:55:00;16.73;;;7.55;;
68940;SDS011;55982;51.476;7.552;2022-10-17T00:57:33;9.75;;;7.18;;
68940;SDS011;55982;51.476;7.552;2022-10-17T00:59:59;9.68;;;7.32;;
68940;SDS011;55982;51.476;7.552;2022-10-17T01:02:28;9.88;;;7.70;;
68940;SDS011;55982;51.476;7.552;2022-10-17T01:04:54;14.70;;;7.75;;
68940;SDS011;55982;51.476;7.552;2022-10-17T01:07:20;12.45;;;7.13;;
68940;SDS011;55982;51.476;7.552;2022-10-17T01:09:46;14.25;;;7.63;;
68940;SDS011;55982;51.476;7.552;2022-10-17T01:14:50;10.93;;;7.75;;
68940;SDS011;55982;51.476;7.552;2022-10-17T01:29:04;9.18;;;6.70;;
68940;SDS011;55982;51.476;7.552;2022-10-17T01:32:03;9.57;;;6.70;;
68940;SDS011;55982;51.476;7.552;2022-10-17T01:37:45;10.70;;;6.82;;
68940;SDS011;55982;51.476;7.552;2022-10-17T01:42:55;13.35;;;7.40;;
68940;SDS011;55982;51.476;7.552;2022-10-17T01:45:31;17.90;;;7.38;;
68940;SDS011;55982;51.476;7.552;2022-10-17T01:48:03;10.55;;;7.50;;
68940;SDS011;55982;51.476;7.552;2022-10-17T01:50:34;9.93;;;7.25;;
68940;SDS011;55982;51.476;7.552;2022-10-17T01:53:27;12.77;;;7.00;;
68940;SDS011;55982;51.476;7.552;2022-10-17T01:55:54;9.75;;;7.20;;
68940;SDS011;55982;51.476;7.552;2022-10-17T01:58:25;12.18;;;6.78;;
68940;SDS011;55982;51.476;7.552;2022-10-17T02:00:55;15.13;;;7.30;;
68940;SDS011;55982;51.476;7.552;2022-10-17T02:03:25;13.55;;;6.88;;
68940;SDS011;55982;51.476;7.552;2022-10-17T02:05:52;10.32;;;6.80;;
68940;SDS011;55982;51.476;7.552;2022-10-17T02:08:26;10.95;;;7.25;;
68940;SDS011;55982;51.476;7.552;2022-10-17T02:10:57;10.18;;;6.78;;
68940;SDS011;55982;51.476;7.552;2022-10-17T02:13:37;12.27;;;7.55;;
68940;SDS011;55982;51.476;7.552;2022-10-17T02:22:51;7.20;;;6.22;;
68940;SDS011;55982;51.476;7.552;2022-10-17T02:28:00;13.88;;;6.75;;
68940;SDS011;55982;51.476;7.552;2022-10-17T02:30:49;10.65;;;6.95;;
68940;SDS011;55982;51.476;7.552;2022-10-17T02:33:26;10.32;;;6.47;;
68940;SDS011;55982;51.476;7.552;2022-10-17T02:36:05;10.80;;;6.47;;
68940;SDS011;55982;51.476;7.552;2022-10-17T02:38:35;9.63;;;6.25;;
68940;SDS011;55982;51.476;7.552;2022-10-17T02:41:02;12.80;;;6.80;;
68940;SDS011;55982;51.476;7.552;2022-10-17T02:43:29;8.32;;;6.72;;
68940;SDS011;55982;51.476;7.552;2022-10-17T02:45:55;13.63;;;6.60;;
68940;SDS011;55982;51.476;7.552;2022-10-17T02:53:53;8.68;;;6.22;;
68940;SDS011;55982;51.476;7.552;2022-10-17T02:56:25;7.90;;;6.15;;
68940;SDS011;55982;51.476;7.552;2022-10-17T02:58:55;11.23;;;6.00;;
68940;SDS011;55982;51.476;7.552;2022-10-17T03:01:23;9.25;;;6.35;;
68940;SDS011;55982;51.476;7.552;2022-10-17T03:03:49;10.68;;;5.70;;
68940;SDS011;55982;51.476;7.552;2022-10-17T03:06:14;11.63;;;6.57;;
68940;SDS011;55982;51.476;7.552;2022-10-17T03:08:40;12.18;;;5.88;;
68940;SDS011;55982;51.476;7.552;2022-10-17T03:11:05;8.80;;;6.50;;
68940;SDS011;55982;51.476;7.552;2022-10-17T03:13:30;11.05;;;5.68;;
68940;SDS011;55982;51.476;7.552;2022-10-17T03:15:56;9.82;;;5.82;;
68940;SDS011;55982;51.476;7.552;2022-10-17T03:18:21;10.55;;;6.30;;
68940;SDS011;55982;51.476;7.552;2022-10-17T03:20:47;8.25;;;6.68;;
68940;SDS011;55982;51.476;7.552;2022-10-17T03:23:12;13.50;;;6.20;;
68940;SDS011;55982;51.476;7.552;2022-10-17T03:25:38;10.75;;;5.53;;
68940;SDS011;55982;51.476;7.552;2022-10-17T03:28:04;9.98;;;6.35;;
68940;SDS011;55982;51.476;7.552;2022-10-17T03:30:30;7.70;;;6.50;;
68940;SDS011;55982;51.476;7.552;2022-10-17T03:32:56;8.63;;;6.05;;
68940;SDS011;55982;51.476;7.552;2022-10-17T03:35:22;13.98;;;6.50;;
68940;SDS011;55982;51.476;7.552;2022-10-17T03:37:48;10.95;;;6.20;;
68940;SDS011;55982;51.476;7.552;2022-10-17T03:40:13;16.40;;;6.22;;
68940;SDS011;55982;51.476;7.552;2022-10-17T03:42:39;14.50;;;6.30;;
68940;SDS011;55982;51.476;7.552;2022-10-17T03:45:04;12.70;;;6.43;;
68940;SDS011;55982;51.476;7.552;2022-10-17T03:47:30;9.52;;;6.55;;
68940;SDS011;55982;51.476;7.552;2022-10-17T03:49:55;9.70;;;5.63;;
68940;SDS011;55982;51.476;7.552;2022-10-17T03:52:20;9.90;;;6.43;;
68940;SDS011;55982;51.476;7.552;2022-10-17T03:54:46;15.18;;;5.97;;
68940;SDS011;55982;51.476;7.552;2022-10-17T03:57:11;11.57;;;6.30;;
68940;SDS011;55982;51.476;7.552;2022-10-17T03:59:37;11.43;;;6.13;;
68940;SDS011;55982;51.476;7.552;2022-10-17T04:02:02;7.97;;;5.82;;
68940;SDS011;55982;51.476;7.552;2022-10-17T04:04:27;11.85;;;6.22;;
68940;SDS011;55982;51.476;7.552;2022-10-17T04:06:53;13.43;;;6.40;;
68940;SDS011;55982;51.476;7.552;2022-10-17T04:09:19;12.30;;;6.10;;
68940;SDS011;55982;51.476;7.552;2022-10-17T04:11:44;10.95;;;6.43;;
68940;SDS011;55982;51.476;7.552;2022-10-17T04:14:09;10.93;;;6.00;;
68940;SDS011;55982;51.476;7.552;2022-10-17T04:16:35;13.65;;;6.05;;
68940;SDS011;55982;51.476;7.552;2022-10-17T04:19:00;12.43;;;6.07;;
68940;SDS011;55982;51.476;7.552;2022-10-17T04:21:26;9.35;;;6.03;;
68940;SDS011;55982;51.476;7.552;2022-10-17T04:23:59;11.25;;;6.93;;
68940;SDS011;55982;51.476;7.552;2022-10-17T04:26:25;12.68;;;6.45;;
68940;SDS011;55982;51.476;7.552;2022-10-17T04:28:51;10.55;;;7.03;;
68940;SDS011;55982;51.476;7.552;2022-10-17T04:31:17;8.40;;;5.82;;
68940;SDS011;55982;51.476;7.552;2022-10-17T04:33:45;11.45;;;6.00;;
68940;SDS011;55982;51.476;7.552;2022-10-17T04:36:13;8.82;;;6.03;;
68940;SDS011;55982;51.476;7.552;2022-10-17T04:38:40;10.43;;;5.95;;
68940;SDS011;55982;51.476;7.552;2022-10-17T04:41:06;11.65;;;5.80;;
68940;SDS011;55982;51.476;7.552;2022-10-17T04:43:35;12.75;;;5.85;;
68940;SDS011;55982;51.476;7.552;2022-10-17T04:46:02;9.63;;;5.50;;
68940;SDS011;55982;51.476;7.552;2022-10-17T04:48:30;10.38;;;6.28;;
68940;SDS011;55982;51.476;7.552;2022-10-17T04:51:03;10.48;;;6.63;;
68940;SDS011;55982;51.476;7.552;2022-10-17T04:53:30;9.32;;;5.90;;
68940;SDS011;55982;51.476;7.552;2022-10-17T04:55:56;14.82;;;5.72;;
68940;SDS011;55982;51.476;7.552;2022-10-17T04:58:22;11.68;;;6.18;;
68940;SDS011;55982;51.476;7.552;2022-10-17T05:00:47;10.43;;;5.40;;
68940;SDS011;55982;51.476;7.552;2022-10-17T05:03:13;8.10;;;5.75;;
68940;SDS011;55982;51.476;7.552;2022-10-17T05:05:39;14.63;;;6.15;;
68940;SDS011;55982;51.476;7.552;2022-10-17T05:08:06;13.20;;;5.70;;
68940;SDS011;55982;51.476;7.552;2022-10-17T05:10:36;12.68;;;5.65;;
68940;SDS011;55982;51.476;7.552;2022-10-17T05:13:02;15.10;;;6.20;;
68940;SDS011;55982;51.476;7.552;2022-10-17T05:15:27;14.15;;;5.45;;
68940;SDS011;55982;51.476;7.552;2022-10-17T05:17:53;8.82;;;6.03;;
68940;SDS011;55982;51.476;7.552;2022-10-17T05:20:20;13.10;;;6.05;;
68940;SDS011;55982;51.476;7.552;2022-10-17T05:22:45;10.55;;;5.80;;
68940;SDS011;55982;51.476;7.552;2022-10-17T05:25:11;8.93;;;5.25;;
68940;SDS011;55982;51.476;7.552;2022-10-17T05:27:36;8.35;;;5.63;;
68940;SDS011;55982;51.476;7.552;2022-10-17T05:30:02;8.43;;;5.80;;
68940;SDS011;55982;51.476;7.552;2022-10-17T05:32:27;7.93;;;5.30;;
68940;SDS011;55982;51.476;7.552;2022-10-17T05:34:53;11.32;;;5.43;;
68940;SDS011;55982;51.476;7.552;2022-10-17T05:37:18;6.78;;;5.78;;
68940;SDS011;55982;51.476;7.552;2022-10-17T05:39:44;10.60;;;5.60;;
68940;SDS011;55982;51.476;7.552;2022-10-17T05:42:09;16.38;;;5.88;;
68940;SDS011;55982;51.476;7.552;2022-10-17T05:44:34;13.05;;;5.85;;
68940;SDS011;55982;51.476;7.552;2022-10-17T05:46:59;10.02;;;5.00;;
68940;SDS011;55982;51.476;7.552;2022-10-17T05:49:25;11.70;;;5.57;;
68940;SDS011;55982;51.476;7.552;2022-10-17T05:51:51;11.13;;;5.88;;
68940;SDS011;55982;51.476;7.552;2022-10-17T05:54:16;9.35;;;5.20;;
68940;SDS011;55982;51.476;7.552;2022-10-17T05:56:41;10.40;;;6.00;;
68940;SDS011;55982;51.476;7.552;2022-10-17T05:59:07;11.13;;;5.15;;
68940;SDS011;55982;51.476;7.552;2022-10-17T06:01:32;9.57;;;5.63;;
68940;SDS011;55982;51.476;7.552;2022-10-17T06:03:58;10.27;;;5.35;;
68940;SDS011;55982;51.476;7.552;2022-10-17T06:06:23;9.70;;;5.03;;
68940;SDS011;55982;51.476;7.552;2022-10-17T06:08:48;10.20;;;5.85;;
68940;SDS011;55982;51.476;7.552;2022-10-17T06:11:14;8.52;;;5.38;;
68940;SDS011;55982;51.476;7.552;2022-10-17T06:13:39;12.57;;;5.55;;
68940;SDS011;55982;51.476;7.552;2022-10-17T06:16:05;13.50;;;5.93;;
68940;SDS011;55982;51.476;7.552;2022-10-17T06:18:30;10.05;;;5.18;;
68940;SDS011;55982;51.476;7.552;2022-10-17T06:21:03;7.53;;;5.05;;
68940;SDS011;55982;51.476;7.552;2022-10-17T06:23:30;8.57;;;5.35;;
68940;SDS011;55982;51.476;7.552;2022-10-17T06:25:59;6.97;;;4.97;;
68940;SDS011;55982;51.476;7.552;2022-10-17T06:28:26;12.48;;;5.60;;
68940;SDS011;55982;51.476;7.552;2022-10-17T06:30:51;9.35;;;5.28;;
68940;SDS011;55982;51.476;7.552;2022-10-17T06:33:16;6.13;;;4.82;;
68940;SDS011;55982;51.476;7.552;2022-10-17T06:35:42;8.27;;;5.30;;
68940;SDS011;55982;51.476;7.552;2022-10-17T06:38:07;10.85;;;5.68;;
68940;SDS011;55982;51.476;7.552;2022-10-17T06:40:33;9.27;;;5.10;;
68940;SDS011;55982;51.476;7.552;2022-10-17T06:42:59;9.50;;;5.15;;
68940;SDS011;55982;51.476;7.552;2022-10-17T06:45:24;12.43;;;5.22;;
68940;SDS011;55982;51.476;7.552;2022-10-17T06:47:50;6.28;;;4.78;;
68940;SDS011;55982;51.476;7.552;2022-10-17T06:50:15;10.13;;;4.70;;
68940;SDS011;55982;51.476;7.552;2022-10-17T06:52:41;9.45;;;4.85;;
68940;SDS011;55982;51.476;7.552;2022-10-17T06:55:06;12.05;;;4.95;;
68940;SDS011;55982;51.476;7.552;2022-10-17T06:57:32;6.30;;;4.78;;
68940;SDS011;55982;51.476;7.552;2022-10-17T06:59:57;10.65;;;4.88;;
68940;SDS011;55982;51.476;7.552;2022-10-17T07:02:22;9.73;;;4.63;;
68940;SDS011;55982;51.476;7.552;2022-10-17T07:04:48;8.38;;;5.00;;
68940;SDS011;55982;51.476;7.552;2022-10-17T07:07:13;18.38;;;6.95;;
68940;SDS011;55982;51.476;7.552;2022-10-17T07:09:39;6.55;;;4.85;;
68940;SDS011;55982;51.476;7.552;2022-10-17T07:12:04;6.63;;;4.78;;
68940;SDS011;55982;51.476;7.552;2022-10-17T07:14:32;7.68;;;4.65;;
68940;SDS011;55982;51.476;7.552;2022-10-17T07:16:58;9.27;;;4.55;;
68940;SDS011;55982;51.476;7.552;2022-10-17T07:19:24;11.45;;;4.97;;
68940;SDS011;55982;51.476;7.552;2022-10-17T07:21:51;8.68;;;4.60;;
68940;SDS011;55982;51.476;7.552;2022-10-17T07:24:16;12.57;;;5.20;;
68940;SDS011;55982;51.476;7.552;2022-10-17T07:26:42;13.27;;;5.18;;
68940;SDS011;55982;51.476;7.552;2022-10-17T07:29:08;9.32;;;5.10;;
68940;SDS011;55982;51.476;7.552;2022-10-17T07:31:34;10.15;;;4.32;;
68940;SDS011;55982;51.476;7.552;2022-10-17T07:33:59;9.45;;;4.65;;
68940;SDS011;55982;51.476;7.552;2022-10-17T07:36:25;11.10;;;4.88;;
68940;SDS011;55982;51.476;7.552;2022-10-17T07:38:50;10.68;;;4.70;;
68940;SDS011;55982;51.476;7.552;2022-10-17T07:41:15;6.30;;;4.28;;
68940;SDS011;55982;51.476;7.552;2022-10-17T07:43:41;10.05;;;4.25;;
68940;SDS011;55982;51.476;7.552;2022-10-17T07:46:07;9.88;;;4.15;;
68940;SDS011;55982;51.476;7.552;2022-10-17T07:48:33;6.30;;;3.83;;
68940;SDS011;55982;51.476;7.552;2022-10-17T07:51:02;13.13;;;4.50;;
68940;SDS011;55982;51.476;7.552;2022-10-17T07:53:29;10.07;;;3.80;;
68940;SDS011;55982;51.476;7.552;2022-10-17T07:55:55;10.00;;;4.18;;
68940;SDS011;55982;51.476;7.552;2022-10-17T07:58:20;6.28;;;4.25;;
68940;SDS011;55982;51.476;7.552;2022-10-17T08:00:45;12.68;;;3.90;;
68940;SDS011;55982;51.476;7.552;2022-10-17T08:03:15;6.80;;;4.10;;
68940;SDS011;55982;51.476;7.552;2022-10-17T08:05:40;8.93;;;4.03;;
68940;SDS011;55982;51.476;7.552;2022-10-17T08:08:07;9.65;;;3.88;;
68940;SDS011;55982;51.476;7.552;2022-10-17T08:10:32;10.18;;;3.92;;
68940;SDS011;55982;51.476;7.552;2022-10-17T08:12:58;6.90;;;4.03;;
68940;SDS011;55982;51.476;7.552;2022-10-17T08:15:23;7.28;;;4.38;;
68940;SDS011;55982;51.476;7.552;2022-10-17T08:17:50;8.85;;;4.07;;
68940;SDS011;55982;51.476;7.552;2022-10-17T08:20:15;8.18;;;4.05;;
68940;SDS011;55982;51.476;7.552;2022-10-17T08:22:41;9.45;;;4.20;;
68940;SDS011;55982;51.476;7.552;2022-10-17T08:25:07;9.27;;;3.90;;
68940;SDS011;55982;51.476;7.552;2022-10-17T08:27:33;9.70;;;4.22;;
68940;SDS011;55982;51.476;7.552;2022-10-17T08:29:59;11.52;;;3.55;;
68940;SDS011;55982;51.476;7.552;2022-10-17T08:32:25;7.10;;;3.60;;
68940;SDS011;55982;51.476;7.552;2022-10-17T08:34:52;10.57;;;3.42;;
68940;SDS011;55982;51.476;7.552;2022-10-17T08:37:19;7.57;;;3.40;;
68940;SDS011;55982;51.476;7.552;2022-10-17T08:39:45;6.95;;;3.55;;
68940;SDS011;55982;51.476;7.552;2022-10-17T08:47:50;4.60;;;3.28;;
68940;SDS011;55982;51.476;7.552;2022-10-17T08:56:06;8.93;;;3.13;;
68940;SDS011;55982;51.476;7.552;2022-10-17T08:58:43;10.40;;;3.50;;
68940;SDS011;55982;51.476;7.552;2022-10-17T09:06:36;7.30;;;3.20;;
68940;SDS011;55982;51.476;7.552;2022-10-17T09:09:15;10.20;;;3.25;;
68940;SDS011;55982;51.476;7.552;2022-10-17T09:22:27;7.57;;;2.80;;
68940;SDS011;55982;51.476;7.552;2022-10-17T09:24:59;11.90;;;3.00;;
68940;SDS011;55982;51.476;7.552;2022-10-17T09:27:37;5.57;;;2.88;;
68940;SDS011;55982;51.476;7.552;2022-10-17T09:32:59;9.18;;;3.00;;
68940;SDS011;55982;51.476;7.552;2022-10-17T09:35:33;9.55;;;3.30;;
68940;SDS011;55982;51.476;7.552;2022-10-17T09:37:59;10.25;;;3.47;;
68940;SDS011;55982;51.476;7.552;2022-10-17T09:40:30;8.48;;;3.25;;
68940;SDS011;55982;51.476;7.552;2022-10-17T09:42:57;7.20;;;2.80;;
68940;SDS011;55982;51.476;7.552;2022-10-17T09:45:25;4.47;;;2.60;;
68940;SDS011;55982;51.476;7.552;2022-10-17T09:48:05;6.05;;;2.78;;
68940;SDS011;55982;51.476;7.552;2022-10-17T09:50:38;8.18;;;2.92;;
68940;SDS011;55982;51.476;7.552;2022-10-17T09:53:09;12.70;;;3.03;;
68940;SDS011;55982;51.476;7.552;2022-10-17T09:55:48;10.43;;;2.67;;
68940;SDS011;55982;51.476;7.552;2022-10-17T09:58:19;11.90;;;2.67;;
68940;SDS011;55982;51.476;7.552;2022-10-17T10:00:45;8.90;;;2.63;;
68940;SDS011;55982;51.476;7.552;2022-10-17T10:03:22;8.65;;;2.72;;
68940;SDS011;55982;51.476;7.552;2022-10-17T10:06:01;11.75;;;2.97;;
68940;SDS011;55982;51.476;7.552;2022-10-17T10:08:47;9.95;;;3.00;;
68940;SDS011;55982;51.476;7.552;2022-10-17T10:11:13;7.82;;;2.90;;
68940;SDS011;55982;51.476;7.552;2022-10-17T10:13:40;7.75;;;2.88;;
68940;SDS011;55982;51.476;7.552;2022-10-17T10:18:41;6.85;;;3.10;;
68940;SDS011;55982;51.476;7.552;2022-10-17T10:21:19;5.38;;;2.90;;
68940;SDS011;55982;51.476;7.552;2022-10-17T10:24:03;8.48;;;3.35;;
68940;SDS011;55982;51.476;7.552;2022-10-17T10:26:38;6.43;;;3.15;;
68940;SDS011;55982;51.476;7.552;2022-10-17T10:29:50;9.02;;;3.50;;
68940;SDS011;55982;51.476;7.552;2022-10-17T10:32:06;11.32;;;3.25;;
68940;SDS011;55982;51.476;7.552;2022-10-17T10:34:34;9.70;;;3.60;;
68940;SDS011;55982;51.476;7.552;2022-10-17T10:37:04;6.53;;;3.65;;
68940;SDS011;55982;51.476;7.552;2022-10-17T10:39:47;6.63;;;3.28;;
68940;SDS011;55982;51.476;7.552;2022-10-17T10:44:51;8.52;;;3.72;;
68940;SDS011;55982;51.476;7.552;2022-10-17T10:49:52;5.63;;;3.67;;
68940;SDS011;55982;51.476;7.552;2022-10-17T10:52:44;9.05;;;3.50;;
68940;SDS011;55982;51.476;7.552;2022-10-17T10:55:15;9.80;;;3.55;;
68940;SDS011;55982;51.476;7.552;2022-10-17T10:57:44;7.00;;;3.88;;
68940;SDS011;55982;51.476;7.552;2022-10-17T11:00:14;8.48;;;3.78;;
68940;SDS011;55982;51.476;7.552;2022-10-17T11:11:16;8.02;;;3.70;;
68940;SDS011;55982;51.476;7.552;2022-10-17T11:14:46;8.77;;;3.50;;
68940;SDS011;55982;51.476;7.552;2022-10-17T11:16:44;8.93;;;3.17;;
68940;SDS011;55982;51.476;7.552;2022-10-17T11:24:39;9.65;;;3.60;;
68940;SDS011;55982;51.476;7.552;2022-10-17T11:27:09;6.30;;;3.40;;
68940;SDS011;55982;51.476;7.552;2022-10-17T11:29:36;10.57;;;3.67;;
68940;SDS011;55982;51.476;7.552;2022-10-17T11:32:06;11.65;;;3.67;;
68940;SDS011;55982;51.476;7.552;2022-10-17T11:34:41;12.27;;;3.65;;
68940;SDS011;55982;51.476;7.552;2022-10-17T11:37:16;6.18;;;3.67;;
68940;SDS011;55982;51.476;7.552;2022-10-17T11:39:53;8.40;;;3.80;;
68940;SDS011;55982;51.476;7.552;2022-10-17T11:42:27;7.57;;;3.50;;
68940;SDS011;55982;51.476;7.552;2022-10-17T11:45:04;11.85;;;3.92;;
68940;SDS011;55982;51.476;7.552;2022-10-17T11:55:38;9.90;;;3.50;;
68940;SDS011;55982;51.476;7.552;2022-10-17T11:58:27;8.57;;;3.25;;
68940;SDS011;55982;51.476;7.552;2022-10-17T12:01:14;13.70;;;4.30;;
68940;SDS011;55982;51.476;7.552;2022-10-17T12:03:50;9.70;;;3.70;;
68940;SDS011;55982;51.476;7.552;2022-10-17T12:06:33;4.97;;;3.20;;
68940;SDS011;55982;51.476;7.552;2022-10-17T12:11:50;9.68;;;4.28;;
68940;SDS011;55982;51.476;7.552;2022-10-17T12:17:08;8.27;;;3.58;;
68940;SDS011;55982;51.476;7.552;2022-10-17T12:22:52;8.52;;;3.55;;
68940;SDS011;55982;51.476;7.552;2022-10-17T12:25:31;7.75;;;3.20;;
68940;SDS011;55982;51.476;7.552;2022-10-17T12:30:31;11.60;;;3.40;;
68940;SDS011;55982;51.476;7.552;2022-10-17T12:32:58;8.32;;;3.58;;
68940;SDS011;55982;51.476;7.552;2022-10-17T12:35:51;9.63;;;3.70;;
68940;SDS011;55982;51.476;7.552;2022-10-17T12:38:45;5.78;;;3.95;;
68940;SDS011;55982;51.476;7.552;2022-10-17T12:54:30;16.23;;;4.03;;
68940;SDS011;55982;51.476;7.552;2022-10-17T12:57:01;6.93;;;3.60;;
68940;SDS011;55982;51.476;7.552;2022-10-17T12:59:27;11.40;;;3.92;;
68940;SDS011;55982;51.476;7.552;2022-10-17T13:01:55;7.22;;;3.90;;
68940;SDS011;55982;51.476;7.552;2022-10-17T13:04:23;11.45;;;4.15;;
68940;SDS011;55982;51.476;7.552;2022-10-17T13:06:51;8.27;;;3.80;;
68940;SDS011;55982;51.476;7.552;2022-10-17T13:09:27;9.32;;;3.83;;
68940;SDS011;55982;51.476;7.552;2022-10-17T13:14:22;7.55;;;3.88;;
68940;SDS011;55982;51.476;7.552;2022-10-17T13:16:50;9.65;;;3.83;;
68940;SDS011;55982;51.476;7.552;2022-10-17T13:19:19;7.97;;;3.33;;
68940;SDS011;55982;51.476;7.552;2022-10-17T13:21:53;12.90;;;4.38;;
68940;SDS011;55982;51.476;7.552;2022-10-17T13:24:29;10.98;;;4.20;;
68940;SDS011;55982;51.476;7.552;2022-10-17T13:26:56;7.20;;;3.45;;
68940;SDS011;55982;51.476;7.552;2022-10-17T13:29:22;6.07;;;4.03;;
68940;SDS011;55982;51.476;7.552;2022-10-17T13:31:53;10.20;;;4.38;;
68940;SDS011;55982;51.476;7.552;2022-10-17T13:34:21;8.27;;;3.95;;
68940;SDS011;55982;51.476;7.552;2022-10-17T13:36:49;9.75;;;4.20;;
68940;SDS011;55982;51.476;7.552;2022-10-17T13:39:18;13.18;;;4.30;;
68940;SDS011;55982;51.476;7.552;2022-10-17T13:41:46;9.25;;;4.00;;
68940;SDS011;55982;51.476;7.552;2022-10-17T13:44:13;11.18;;;4.53;;
68940;SDS011;55982;51.476;7.552;2022-10-17T13:46:42;13.15;;;4.20;;
68940;SDS011;55982;51.476;7.552;2022-10-17T13:49:09;7.50;;;4.05;;
68940;SDS011;55982;51.476;7.552;2022-10-17T13:51:41;7.63;;;4.35;;
68940;SDS011;55982;51.476;7.552;2022-10-17T13:57:20;8.55;;;4.25;;
68940;SDS011;55982;51.476;7.552;2022-10-17T14:02:26;7.70;;;4.47;;
68940;SDS011;55982;51.476;7.552;2022-10-17T14:10:19;11.05;;;4.22;;
68940;SDS011;55982;51.476;7.552;2022-10-17T14:12:47;13.77;;;4.07;;
68940;SDS011;55982;51.476;7.552;2022-10-17T14:15:13;12.35;;;4.57;;
68940;SDS011;55982;51.476;7.552;2022-10-17T14:17:40;11.55;;;4.03;;
68940;SDS011;55982;51.476;7.552;2022-10-17T14:20:14;8.73;;;3.75;;
68940;SDS011;55982;51.476;7.552;2022-10-17T14:22:42;8.02;;;3.55;;
68940;SDS011;55982;51.476;7.552;2022-10-17T14:25:26;11.45;;;3.88;;
68940;SDS011;55982;51.476;7.552;2022-10-17T14:30:35;12.60;;;4.43;;
68940;SDS011;55982;51.476;7.552;2022-10-17T14:33:04;12.73;;;4.22;;
68940;SDS011;55982;51.476;7.552;2022-10-17T14:35:33;10.85;;;4.30;;
68940;SDS011;55982;51.476;7.552;2022-10-17T14:37:59;16.98;;;4.65;;
68940;SDS011;55982;51.476;7.552;2022-10-17T14:40:27;7.68;;;4.25;;
68940;SDS011;55982;51.476;7.552;2022-10-17T14:42:55;6.80;;;3.97;;
68940;SDS011;55982;51.476;7.552;2022-10-17T14:45:24;9.60;;;4.22;;
68940;SDS011;55982;51.476;7.552;2022-10-17T14:47:59;12.65;;;4.90;;
68940;SDS011;55982;51.476;7.552;2022-10-17T14:50:28;10.80;;;4.70;;
68940;SDS011;55982;51.476;7.552;2022-10-17T14:53:06;12.80;;;4.50;;
68940;SDS011;55982;51.476;7.552;2022-10-17T14:55:55;17.65;;;4.50;;
68940;SDS011;55982;51.476;7.552;2022-10-17T14:58:29;9.38;;;4.38;;
68940;SDS011;55982;51.476;7.552;2022-10-17T15:00:56;13.15;;;4.75;;
68940;SDS011;55982;51.476;7.552;2022-10-17T15:03:23;10.35;;;4.65;;
68940;SDS011;55982;51.476;7.552;2022-10-17T15:05:49;11.38;;;4.30;;
68940;SDS011;55982;51.476;7.552;2022-10-17T15:08:16;8.93;;;4.22;;
68940;SDS011;55982;51.476;7.552;2022-10-17T15:10:44;12.32;;;4.80;;
68940;SDS011;55982;51.476;7.552;2022-10-17T15:13:11;6.72;;;4.30;;
68940;SDS011;55982;51.476;7.552;2022-10-17T15:15:37;8.70;;;4.85;;
68940;SDS011;55982;51.476;7.552;2022-10-17T15:18:05;15.23;;;4.65;;
68940;SDS011;55982;51.476;7.552;2022-10-17T15:20:31;16.25;;;4.50;;
68940;SDS011;55982;51.476;7.552;2022-10-17T15:23:01;10.88;;;4.50;;
68940;SDS011;55982;51.476;7.552;2022-10-17T15:25:27;16.02;;;4.80;;
68940;SDS011;55982;51.476;7.552;2022-10-17T15:27:55;11.95;;;4.63;;
68940;SDS011;55982;51.476;7.552;2022-10-17T15:32:48;12.73;;;5.45;;
68940;SDS011;55982;51.476;7.552;2022-10-17T15:35:14;11.75;;;4.38;;
68940;SDS011;55982;51.476;7.552;2022-10-17T15:37:41;12.02;;;4.70;;
68940;SDS011;55982;51.476;7.552;2022-10-17T15:40:09;5.82;;;3.97;;
68940;SDS011;55982;51.476;7.552;2022-10-17T15:42:39;10.27;;;4.50;;
68940;SDS011;55982;51.476;7.552;2022-10-17T15:45:05;13.43;;;4.55;;
68940;SDS011;55982;51.476;7.552;2022-10-17T15:47:31;9.75;;;4.22;;
68940;SDS011;55982;51.476;7.552;2022-10-17T15:49:57;13.63;;;4.55;;
68940;SDS011;55982;51.476;7.552;2022-10-17T15:52:23;10.25;;;4.90;;
68940;SDS011;55982;51.476;7.552;2022-10-17T15:54:49;19.65;;;5.07;;
68940;SDS011;55982;51.476;7.552;2022-10-17T15:57:18;12.73;;;5.90;;
68940;SDS011;55982;51.476;7.552;2022-10-17T15:59:51;10.90;;;5.38;;
68940;SDS011;55982;51.476;7.552;2022-10-17T16:02:18;12.43;;;5.28;;
68940;SDS011;55982;51.476;7.552;2022-10-17T16:04:45;11.38;;;6.00;;
68940;SDS011;55982;51.476;7.552;2022-10-17T16:07:12;15.55;;;5.03;;
68940;SDS011;55982;51.476;7.552;2022-10-17T16:09:38;11.00;;;6.10;;
68940;SDS011;55982;51.476;7.552;2022-10-17T16:12:04;10.32;;;5.80;;
68940;SDS011;55982;51.476;7.552;2022-10-17T16:14:30;38.10;;;6.68;;
68940;SDS011;55982;51.476;7.552;2022-10-17T16:16:58;12.23;;;5.70;;
68940;SDS011;55982;51.476;7.552;2022-10-17T16:19:24;7.88;;;5.45;;
68940;SDS011;55982;51.476;7.552;2022-10-17T16:21:54;14.52;;;6.32;;
68940;SDS011;55982;51.476;7.552;2022-10-17T16:24:23;13.27;;;6.38;;
68940;SDS011;55982;51.476;7.552;2022-10-17T16:26:49;11.25;;;6.53;;
68940;SDS011;55982;51.476;7.552;2022-10-17T16:29:14;14.35;;;7.47;;
68940;SDS011;55982;51.476;7.552;2022-10-17T16:31:41;10.63;;;6.53;;
68940;SDS011;55982;51.476;7.552;2022-10-17T16:34:09;18.42;;;7.60;;
68940;SDS011;55982;51.476;7.552;2022-10-17T16:36:39;10.98;;;7.72;;
68940;SDS011;55982;51.476;7.552;2022-10-17T16:39:05;12.10;;;7.50;;
68940;SDS011;55982;51.476;7.552;2022-10-17T16:41:37;17.27;;;8.18;;
68940;SDS011;55982;51.476;7.552;2022-10-17T16:44:04;19.85;;;8.55;;
68940;SDS011;55982;51.476;7.552;2022-10-17T16:46:32;19.52;;;9.70;;
68940;SDS011;55982;51.476;7.552;2022-10-17T16:48:59;18.20;;;9.48;;
68940;SDS011;55982;51.476;7.552;2022-10-17T16:51:25;18.63;;;9.50;;
68940;SDS011;55982;51.476;7.552;2022-10-17T16:53:51;19.92;;;10.88;;
68940;SDS011;55982;51.476;7.552;2022-10-17T16:56:19;15.50;;;10.18;;
68940;SDS011;55982;51.476;7.552;2022-10-17T16:58:46;19.77;;;10.82;;
68940;SDS011;55982;51.476;7.552;2022-10-17T17:01:16;16.13;;;10.65;;
68940;SDS011;55982;51.476;7.552;2022-10-17T17:03:43;20.95;;;11.60;;
68940;SDS011;55982;51.476;7.552;2022-10-17T17:06:11;21.23;;;12.35;;
68940;SDS011;55982;51.476;7.552;2022-10-17T17:08:42;21.73;;;11.32;;